KSME/SME METAR and TAF weather

Enter ICAO airport designator
Station Type Date Time Source
KSME METAR 2019/11/21 03:35 UTC NOAA

KSME 210335Z AUTO 00000KT 10SM CLR 02/02 A3026 RMK AO2


Station Type Date Time Source
KSME Decoded METAR 2019/11/21 03:35 UTC NOAA

Somerset, Somerset-Pulaski County - J.T. Wilson Field Airport, KY, United States (KSME) 37-03-15N 084-36-54W
Nov 20, 2019 - 10:35 PM EST / 2019.11.21 0335 UTC
Wind: Calm:0
Visibility: 10 mile(s):0
Sky conditions: clear
Temperature: 35 F (2 C)
Dew Point: 35 F (2 C)
Relative Humidity: 100%
Pressure (altimeter): 30.26 in. Hg (1024 hPa)
ob: KSME 210335Z AUTO 00000KT 10SM CLR 02/02 A3026 RMK AO2
cycle: 3

Station Type Date Time Source
KSME TAF 2019/11/20 22:42 UTC NOAA

TAF
AMD KSME 202141Z 2022/2118 VRB05KT P6SM SCT020
FM210000 VRB03KT P6SM BKN040
FM210200 00000KT P6SM SCT040

Example: see airport list